Historique des mesures à Cassis (13260), France
Quotidien Résumé Avril 18, 2017 Unités:  US    Métrique   Métrique/US
« Précédent (Jour)
Suivant (Jour) »
Quotidien Hebdomadaire Mensuel Annuel Période au choix
  Maximum: Minimum: Moyenne:
Température: 32 °F 53.4 °F 57 °F
Point de rosée: 32 °F 23.5 °F 34 °F
Humidité: Humidity % 27 % 40 %
Vitesse du vent: WindSpeedKMH mph 3.5 mph 23.7 mph
Rafales: WindSpeedGustKMH mph - -
Vent:- - South
Pression: 0 in 29.7 in -
Précipitations: 0 in    
Historical Graphs
 
 
Mesures pour : Avril 18, 2017
Heure Temperature Point de rosée Pression Vent Vitesse du vent Rafales Humidité Pluie (par heure) Conditions
32 °F 32 °F 0 in Calm     Humidity % 0 in SoftwareType W/m2
00:11 63.3 °F 37.9 °F 29.8 in WNW 27.7 mph 36.7 mph 39 % 0 in open2300-1.11 W/m2
01:11 60.6 °F 36.7 °F 29.8 in North 23.8 mph 28.8 mph 41 % 0 in open2300-1.11 W/m2
02:11 57.9 °F 38.8 °F 29.8 in NNW 30.9 mph 41.4 mph 49 % 0 in open2300-1.11 W/m2
03:11 57.4 °F 39 °F 29.8 in NW 32.8 mph 53.6 mph 50 % 0 in open2300-1.11 W/m2
04:11 56.5 °F 39.6 °F 29.8 in NNE 31.4 mph 31.4 mph 53 % 0 in open2300-1.11 W/m2
05:11 56.1 °F 39.6 °F 29.7 in NNW 23.0 mph 41.4 mph 54 % 0 in open2300-1.11 W/m2
06:11 55.2 °F 39.2 °F 29.7 in NNW 20.6 mph 24.8 mph 55 % 0 in open2300-1.11 W/m2
07:11 54.1 °F 39.2 °F 29.8 in NW 26.2 mph 33.5 mph 57 % 0 in open2300-1.11 W/m2
08:11 55.2 °F 38.8 °F 29.8 in NW 21.9 mph 27.7 mph 54 % 0 in open2300-1.11 W/m2
09:11 55.4 °F 39.4 °F 29.8 in North 27.4 mph 27.4 mph 55 % 0 in open2300-1.11 W/m2
10:11 56.8 °F 39.4 °F 29.8 in WNW 29.4 mph 29.4 mph 52 % 0 in open2300-1.11 W/m2
11:10 59.7 °F 39.4 °F 29.8 in NNE 14.3 mph 29.1 mph 47 % 0 in open2300-1.11 W/m2
12:11 60.6 °F 37.9 °F 29.8 in NW 26.2 mph 33.8 mph 43 % 0 in open2300-1.11 W/m2
13:11 62.1 °F 36.7 °F 29.7 in NNE 23.0 mph 47.5 mph 39 % 0 in open2300-1.11 W/m2
14:11 62.4 °F 34.9 °F 29.7 in North 19.5 mph 26.2 mph 36 % 0 in open2300-1.11 W/m2
15:11 62.2 °F 30.4 °F 29.7 in North 25.3 mph 25.3 mph 30 % 0 in open2300-1.11 W/m2
16:11 61.9 °F 28 °F 29.7 in North 33.1 mph 42.8 mph 28 % 0 in open2300-1.11 W/m2
18:11 60.6 °F 26.1 °F 29.7 in North 31.7 mph 31.7 mph 27 % 0 in open2300-1.11 W/m2
19:11 59 °F 24.8 °F 29.7 in NW 21.2 mph 64.8 mph 27 % 0 in open2300-1.11 W/m2
20:11 56.8 °F 23.7 °F 29.8 in NNW 27.0 mph 27.0 mph 28 % 0 in open2300-1.11 W/m2
21:11 55.2 °F 25 °F 29.8 in North 24.5 mph 24.5 mph 31 % 0 in open2300-1.11 W/m2
22:11 54 °F 24.1 °F 29.9 in NNW 24.5 mph 29.9 mph 31 % 0 in open2300-1.11 W/m2
23:11 53.4 °F 23.5 °F 29.9 in NNE 3.5 mph 10.8 mph 31 % 0 in open2300-1.11 W/m2
Observations météo à CASSIS
WU-History script by Weather Underground - 1 mb